Weather observations for the past three days for
Georgetown County Airport
Imperial (Metric)
Date Time (edt) Wind (mph) Vis. (mi.) Weather Sky Cond. Temperature (ºF) Relative Humidity Wind Chill (°F) Heat Index (°F) Pressure Precipitation (in)
Air Dwpt 6 hour altimeter (in) sea level (mb) 1 hr 3 hr 6 hr
Max. Min.
04 07:55 Calm 10.00 Fair CLR 53.6 53.6 100% 30.09 0.0
04 07:35 Calm 10.00 Fair CLR 50 50 100% 30.09 0.0
04 07:15 Calm 10.00 Fair CLR 48.2 46.4 94% 30.09 0.0
04 06:55 Calm 10.00 Fair CLR 46.4 44.6 93% 30.08 0.0
04 06:35 Calm 10.00 Fair CLR 44.6 44.6 100% 30.08 0.0
04 06:15 Calm 7.00 Fair CLR 44.6 44.6 100% 30.07 0.0
04 05:55 Calm 7.00 Fair CLR 46.4 46.4 100% 30.07 0.0
04 05:35 Calm 10.00 Fair CLR 46.4 46.4 100% 30.07 0.0
04 05:15 Calm 10.00 Fair CLR 46.4 44.6 93% 30.07 0.0
04 04:55 Calm 10.00 Fair CLR 46.4 44.6 93% 30.08 0.0
04 04:35 Calm 7.00 Fair CLR 46.4 46.4 100% 30.08 0.0
04 04:15 Calm 10.00 Fair CLR 46.4 46.4 100% 30.09 0.0
04 03:55 Calm 10.00 Fair CLR 46.4 46.4 100% 30.09 0.0
04 03:35 Calm 10.00 Fair CLR 46.4 46.4 100% 30.09 0.0
04 03:15 Calm 10.00 Fair CLR 46.4 46.4 100% 30.09 0.0
04 02:55 Calm 10.00 Fair CLR 46.4 46.4 100% 30.09 0.0
04 02:35 Calm 10.00 Fair CLR 46.4 46.4 100% 30.09 0.0
04 02:15 Calm 10.00 Fair CLR 48.2 46.4 94% 30.1 0.0
04 01:55 Calm 10.00 Fair CLR 48.2 46.4 94% 30.1 0.0
04 01:35 Calm 10.00 Fair CLR 48.2 48.2 100% 30.1 0.0
04 01:15 Calm 10.00 Fair CLR 48.2 48.2 100% 30.1 0.0
04 00:55 Calm 10.00 Fair CLR 48.2 46.4 94% 30.1 0.0
04 00:35 Calm 10.00 Fair CLR 50 48.2 94% 30.1 0.0
04 00:15 Calm 10.00 Fair CLR 48.2 48.2 100% 30.1 0.0
03 23:55 Calm 10.00 Fair CLR 48.2 46.4 94% 30.1 0.0
03 23:35 SW 3 10.00 Fair CLR 50 50 100% 30.1 0.0
03 23:15 S 3 10.00 Fair CLR 50 50 100% 30.11 0.0
03 22:55 Calm 10.00 Fair CLR 50 50 100% 30.11 0.0
03 22:35 S 3 10.00 Fair CLR 50 50 100% 30.1 0.0
03 22:15 S 3 10.00 Fair CLR 51.8 50 94% 30.1 0.0
03 21:55 Calm 10.00 Fair CLR 51.8 50 94% 30.1 0.0
03 21:35 Calm 10.00 Fair CLR 51.8 48.2 88% 30.09 0.0
03 21:15 S 3 10.00 Fair CLR 51.8 50 94% 30.09 0.0
03 20:55 SE 3 10.00 Fair CLR 53.6 50 88% 30.08 0.0
03 20:35 Calm 10.00 Fair CLR 55.4 50 82% 30.07 0.0
03 20:15 Calm 10.00 Fair CLR 57.2 46.4 67% 30.07 0.0
03 19:55 S 3 10.00 Fair CLR 59 46.4 63% 30.07 0.0
03 19:35 S 3 10.00 Fair CLR 60.8 46.4 59% 30.06 0.0
03 19:15 S 6 10.00 Fair CLR 62.6 44.6 52% 30.06 0.0
03 18:55 S 6 10.00 Fair CLR 62.6 44.6 52% 30.06 0.0
03 18:35 S 8 10.00 Fair CLR 64.4 44.6 49% 30.06 0.0
03 18:15 SE 9 10.00 Fair CLR 64.4 44.6 49% 30.06 0.0
03 17:55 SE 9 10.00 Partly Cloudy SCT070 64.4 44.6 49% 30.06 0.0
03 17:35 SE 10 G 17 10.00 Mostly Cloudy BKN060 64.4 44.6 49% 30.06 0.0
03 17:15 S 8 10.00 Mostly Cloudy BKN060 64.4 44.6 49% 30.07 0.0
03 16:55 SE 9 10.00 Mostly Cloudy BKN060 64.4 42.8 46% 30.06 0.0
03 16:35 S 9 10.00 Mostly Cloudy BKN060 64.4 42.8 46% 30.06 0.0
03 16:15 SE 10 10.00 Partly Cloudy SCT060 68 44.6 43% 30.06 0.0
03 15:55 Calm 10.00 Partly Cloudy SCT060 68 39.2 35% 30.07 0.0
03 15:35 SW 5 10.00 Partly Cloudy SCT060 69.8 39.2 33% 30.08 0.0
03 15:15 SW 5 10.00 Partly Cloudy SCT060 68 41 38% 30.09 0.0
03 14:55 SW 6 10.00 Partly Cloudy SCT060 68 39.2 35% 30.1 0.0
03 14:35 NW 9 10.00 Partly Cloudy SCT060 68 41 38% 30.1 0.0
03 14:15 W 9 10.00 Fair CLR 68 41 38% 30.11 0.0
03 13:55 NW 3 10.00 Fair CLR 64.4 39.2 40% 30.11 0.0
03 13:35 W 3 10.00 Fair CLR 64.4 39.2 40% 30.12 0.0
03 13:15 NW 5 10.00 Partly Cloudy SCT055 64.4 41 43% 30.12 0.0
03 12:55 N 8 10.00 Fair CLR 64.4 41 43% 30.12 0.0
03 12:35 NE 5 10.00 Fair CLR 64.4 41 43% 30.13 0.0
03 12:15 N 5 10.00 Fair CLR 62.6 39.2 42% 30.14 0.0
03 11:55 NW 6 10.00 Fair CLR 62.6 41 45% 30.14 0.0
03 11:35 NW 6 10.00 Fair CLR 62.6 41 45% 30.14 0.0
03 11:15 N 6 10.00 Fair CLR 60.8 41 48% 30.15 0.0
03 10:55 N 5 10.00 Fair CLR 60.8 41 48% 30.15 0.0
03 10:35 N 6 10.00 Fair CLR 60.8 41 48% 30.15 0.0
03 10:15 NE 9 G 17 10.00 Fair CLR 59 42.8 55% 30.14 0.0
03 09:55 NE 8 10.00 Fair CLR 59 42.8 55% 30.13 0.0
03 09:35 N 8 10.00 Fair CLR 57.2 44.6 63% 30.13 0.0
03 09:15 NE 8 10.00 Fair CLR 55.4 46.4 72% 30.13 0.0
03 08:55 N 7 10.00 Fair CLR 53.6 50 88% 30.12 0.0
03 08:35 N 6 7.00 Fair CLR 51.8 51.8 100% 30.13 0.0
03 08:15 NW 3 10.00 Fair CLR 50 50 100% 30.12 0.0
03 07:55 Calm 10.00 Fair CLR 50 48.2 94% 30.12 0.0
03 07:35 Calm 4.00 Fog/Mist CLR 46.4 46.4 100% 30.1 0.0
03 07:15 Calm 2.50 Fog/Mist SCT002 44.6 44.6 100% 30.09 0.0
03 06:55 Calm 0.25 Fog BKN002 42.8 42.8 100% 30.09 0.0
03 06:35 Calm 5.00 Fog/Mist CLR 44.6 44.6 100% 30.07 0.0
03 06:15 Calm 7.00 Fair CLR 44.6 44.6 100% 30.07 0.0
03 05:55 Calm 7.00 Fair CLR 44.6 44.6 100% 30.06 0.0
03 05:35 Calm 5.00 Fog/Mist CLR 44.6 44.6 100% 30.05 0.0
03 05:15 Calm 5.00 Fog/Mist CLR 44.6 44.6 100% 30.05 0.0
03 04:55 Calm 1.00 Fog/Mist VV007 44.6 44.6 100% 30.05 0.0
03 04:35 Calm 0.50 Fog VV005 46.4 44.6 93% 30.04 0.0
03 04:15 Calm 5.00 Fog/Mist CLR 46.4 46.4 100% 30.04 0.0
03 03:55 Calm 7.00 Fair CLR 46.4 46.4 100% 30.04 0.0
03 03:35 Calm 4.00 Fog/Mist CLR 46.4 46.4 100% 30.03 0.0
03 03:15 Calm 4.00 Fog/Mist SCT003 48.2 46.4 94% 30.02 0.0
03 02:55 Calm 5.00 Fog/Mist BKN003 48.2 46.4 94% 30.01 0.0
03 02:35 NW 3 5.00 Fog/Mist BKN003 50 48.2 94% 30.01 0.0
03 02:15 NW 5 7.00 Partly Cloudy SCT003 48.2 48.2 100% 47 30.01 0.0
03 01:55 Calm 7.00 Partly Cloudy SCT005 50 48.2 94% 30.01 0.0
03 01:35 NW 5 10.00 Mostly Cloudy BKN005 50 50 100% 49 30.01 0.0
03 01:15 NW 6 10.00 Mostly Cloudy BKN005 50 50 100% 48 30.01 0.0
03 00:55 Calm 10.00 Partly Cloudy SCT005 50 50 100% 30 0.0
03 00:35 NW 6 10.00 Mostly Cloudy BKN007 50 50 100% 48 30 0.0
03 00:15 NW 3 10.00 Overcast OVC007 51.8 50 94% 29.99 0.0
02 23:55 NW 6 10.00 Overcast OVC007 51.8 51.8 100% 29.99 0.0
02 23:35 N 5 10.00 Mostly Cloudy BKN007 51.8 51.8 100% 29.97 0.0
02 23:15 N 5 10.00 Mostly Cloudy BKN007 BKN100 51.8 51.8 100% 29.97 0.0
02 22:55 N 6 10.00 Overcast BKN007 OVC100 53.6 51.8 94% 29.95 0.0
02 22:35 N 8 10.00 Overcast OVC007 53.6 51.8 94% 29.95 0.0
02 22:15 N 7 10.00 Overcast BKN007 OVC010 53.6 53.6 100% 29.94 0.0
02 21:55 N 5 10.00 Overcast SCT009 OVC095 53.6 53.6 100% 29.93 0.0
02 21:35 Calm 10.00 Overcast SCT007 OVC085 53.6 53.6 100% 29.93 0.0
02 21:15 N 5 10.00 Overcast OVC007 53.6 53.6 100% 29.93 0.0
02 20:55 NW 7 10.00 Overcast SCT007 OVC015 53.6 53.6 100% 29.92 0.0
02 20:35 N 6 10.00 Overcast BKN009 OVC015 53.6 53.6 100% 29.91 0.0
02 20:15 N 6 10.00 Overcast BKN009 BKN013 OVC065 53.6 53.6 100% 29.9 0.0
02 19:55 NW 6 10.00 Overcast BKN007 OVC012 53.6 53.6 100% 29.89 0.0
02 19:35 N 6 10.00 Overcast OVC007 53.6 53.6 100% 29.88 0.0
02 19:15 N 5 10.00 Overcast BKN009 OVC055 55.4 53.6 94% 29.88 0.0
02 18:55 N 6 10.00 Overcast BKN009 BKN012 OVC060 55.4 53.6 94% 29.88 0.0
02 18:35 N 8 10.00 Overcast BKN009 OVC012 55.4 53.6 94% 29.87 0.0
02 18:15 N 6 10.00 Overcast SCT006 OVC011 55.4 55.4 100% 29.88 0.0
02 17:55 N 7 10.00 Overcast BKN009 OVC014 55.4 55.4 100% 29.87 0.0 0.01
02 17:35 N 8 10.00 Overcast BKN007 OVC044 55.4 55.4 100% 29.86 0.0 0.01
02 17:15 N 8 10.00 Light Rain BKN007 BKN012 OVC042 55.4 55.4 100% 29.85 0.0 0.01
02 16:55 N 8 10.00 Overcast OVC007 55.4 55.4 100% 29.85 0.0 0.01
02 16:35 N 8 G 16 7.00 Light Rain OVC007 55.4 55.4 100% 29.85 0.0 0.01
02 16:15 N 9 7.00 Light Rain BKN007 BKN010 OVC021 55.4 55.4 100% 29.85 0.0 0.01
02 15:55 N 13 5.00 Light Rain BKN007 BKN016 OVC021 55.4 55.4 100% 29.85 0.0 0.04
02 15:35 N 10 10.00 Light Rain SCT009 BKN015 OVC020 55.4 55.4 100% 29.84 0.0 0.03
02 15:15 N 9 G 16 5.00 Light Rain SCT007 OVC014 55.4 55.4 100% 29.84 0.0 0.02
02 14:55 N 6 7.00 Light Rain SCT007 OVC013 55.4 55.4 100% 29.84 0.0 0.02
02 14:35 N 8 10.00 Light Rain BKN007 OVC011 57.2 55.4 94% 29.84 0.0 0.02
02 14:15 N 10 5.00 Light Rain BKN007 BKN011 OVC020 59 57.2 94% 29.85 0.0 0.01
02 13:55 N 7 5.00 Light Rain SCT009 BKN012 OVC020 59 57.2 94% 29.85 0.0 0.06
02 13:35 N 9 10.00 Light Rain OVC011 59 59 100% 29.86 0.0 0.02
02 13:15 N 8 10.00 Light Rain BKN009 OVC015 59 59 100% 29.84 0.0
02 12:55 NE 6 10.00 Light Rain BKN010 BKN016 OVC050 59 59 100% 29.84 0.0 0.02
02 12:35 NE 10 7.00 Light Rain BKN008 BKN016 OVC039 59 59 100% 29.85 0.0 0.02
02 12:15 NE 7 7.00 Light Rain BKN008 BKN046 OVC065 59 59 100% 29.87 0.0 0.01
02 11:55 N 7 7.00 Light Rain SCT032 OVC049 59 59 100% 29.87 0.0 0.07
02 11:35 N 3 10.00 Light Rain SCT032 BKN044 OVC065 57.2 57.2 100% 29.89 0.0 0.05
02 11:15 N 5 7.00 Rain SCT011 BKN032 OVC045 57.2 55.4 94% 29.88 0.0 0.03
02 10:55 N 3 5.00 Rain SCT011 BKN034 OVC050 57.2 55.4 94% 29.89 0.0 0.12
02 10:35 N 7 7.00 Light Rain SCT034 BKN050 OVC080 57.2 55.4 94% 29.89 0.0 0.06
02 10:15 N 15 5.00 Light Rain SCT006 BKN013 OVC055 57.2 55.4 94% 29.86 0.0 0.04
02 09:55 N 6 4.00 Rain SCT006 BKN013 OVC026 59 57.2 94% 29.89 0.0 0.14
02 09:35 N 6 5.00 Rain OVC026 59 57.2 94% 29.88 0.0 0.08
02 09:15 Calm 4.00 Rain OVC028 59 57.2 94% 29.87 0.0 0.02
02 08:55 Calm 10.00 Light Rain BKN032 OVC042 59 57.2 94% 29.86 0.0 0.01
02 08:35 N 7 10.00 Overcast SCT032 BKN042 OVC100 59 57.2 94% 29.84 0.0 0.01
02 08:15 NE 5 10.00 Overcast BKN045 BKN090 OVC120 57.2 57.2 100% 29.84 0.0 0.01
02 07:55 NE 7 10.00 Light Rain SCT037 OVC047 57.2 55.4 94% 29.85 0.0 0.02
02 07:35 N 7 7.00 Light Rain SCT004 OVC037 57.2 57.2 100% 29.87 0.0 0.02
02 07:15 N 6 7.00 Light Rain OVC004 59 57.2 94% 29.87 0.0 0.01
02 06:55 N 6 4.00 Light Rain BKN004 OVC009 59 57.2 94% 29.86 0.0 0.14
02 06:35 NW 3 4.00 Heavy Rain OVC004 59 57.2 94% 29.88 0.0 0.1
02 06:15 Calm 4.00 Light Rain OVC004 59 57.2 94% 29.87 0.0 0.04
02 05:55 NW 3 5.00 Light Rain BKN004 BKN046 OVC060 59 57.2 94% 29.87 0.0 0.04
02 05:35 Calm 7.00 Light Rain BKN004 BKN017 OVC060 59 57.2 94% 29.86 0.0 0.02
02 05:15 Calm 7.00 Light Rain BKN004 BKN017 OVC024 59 59 100% 29.86 0.0 0.01
02 04:55 Calm 7.00 Light Rain BKN004 BKN019 OVC048 59 59 100% 29.86 0.0 0.03
02 04:35 N 6 7.00 Light Rain BKN004 OVC040 59 59 100% 29.86 0.0 0.02
02 04:15 NW 5 7.00 Light Rain OVC004 59 59 100% 29.87 0.0
02 03:55 N 6 7.00 Light Rain SCT006 OVC050 60.8 59 94% 29.86 0.0 0.01
02 03:35 Calm 7.00 Light Rain OVC050 60.8 60.8 100% 29.86 0.0 0.01
02 03:15 Calm 7.00 Light Rain OVC065 60.8 60.8 100% 29.85 0.0
02 02:55 Calm 10.00 Light Rain OVC065 60.8 60.8 100% 29.85 0.0
02 02:35 N 5 10.00 Overcast OVC065 60.8 60.8 100% 29.85 0.0
02 02:15 N 5 10.00 Overcast OVC065 60.8 60.8 100% 29.85 0.0
02 01:55 Calm 10.00 Overcast SCT008 SCT013 OVC065 60.8 60.8 100% 29.87 0.0
02 01:35 Calm 10.00 Overcast BKN010 OVC015 60.8 60.8 100% 29.88 0.0
02 01:15 Calm 10.00 Overcast OVC013 62.6 60.8 94% 29.88 0.0
02 00:55 Calm 10.00 Overcast OVC013 62.6 60.8 94% 29.88 0.0
02 00:35 N 5 10.00 Overcast OVC011 62.6 60.8 94% 29.88 0.0
02 00:15 NE 5 10.00 Light Rain OVC013 62.6 60.8 94% 29.89 0.0
01 23:55 NE 5 10.00 Light Rain OVC013 62.6 60.8 94% 29.9 0.0
01 23:35 Calm 10.00 Light Rain OVC013 62.6 60.8 94% 29.91 0.0
01 23:15 E 5 10.00 Light Drizzle BKN017 BKN022 OVC080 62.6 60.8 94% 29.91 0.0
01 22:55 Calm 7.00 Light Rain SCT022 SCT034 OVC080 62.6 60.8 94% 29.92 0.0
01 22:35 E 6 10.00 Rain SCT026 BKN035 OVC080 62.6 60.8 94% 29.92 0.0
01 22:15 E 7 10.00 Overcast BKN026 BKN033 OVC090 62.6 60.8 94% 29.92 0.0
01 21:55 E 8 10.00 Overcast OVC100 62.6 60.8 94% 29.91 0.0
01 21:35 E 6 10.00 Overcast OVC100 62.6 60.8 94% 29.91 0.0
01 21:15 E 6 10.00 Overcast SCT065 OVC100 62.6 60.8 94% 29.91 0.0
01 20:55 NE 6 10.00 Overcast SCT032 SCT041 OVC110 62.6 60.8 94% 29.9 0.0
01 20:35 NE 7 10.00 Overcast SCT032 OVC110 60.8 60.8 100% 29.89 0.0
01 20:15 NE 9 10.00 Light Drizzle OVC110 62.6 60.8 94% 29.89 0.0
01 19:55 NE 9 10.00 Overcast SCT100 OVC120 62.6 60.8 94% 29.89 0.0
01 19:35 NE 9 10.00 Mostly Cloudy SCT065 SCT090 BKN120 62.6 60.8 94% 29.88 0.0
01 19:15 NE 7 10.00 Light Rain BKN013 BKN039 OVC120 62.6 60.8 94% 29.89 0.0
01 18:55 NE 7 10.00 Overcast SCT013 BKN028 OVC080 62.6 60.8 94% 29.89 0.0 0.01
01 18:35 NE 7 10.00 Overcast OVC070 62.6 60.8 94% 29.89 0.0 0.01
01 18:15 NE 8 7.00 Light Rain SCT012 BKN047 OVC075 62.6 60.8 94% 29.89 0.0 0.01
01 17:55 E 7 5.00 Light Rain OVC012 62.6 60.8 94% 29.9 0.0 0.02
01 17:35 E 5 5.00 Rain OVC014 62.6 62.6 100% 29.91 0.0 0.01
01 17:15 NE 8 10.00 Light Rain BKN014 OVC080 64.4 60.8 88% 29.9 0.0
01 16:55 NE 7 7.00 Light Rain SCT016 SCT022 OVC080 64.4 60.8 88% 29.89 0.0
01 16:35 E 7 10.00 Light Rain BKN014 BKN031 OVC080 64.4 60.8 88% 29.89 0.0
01 16:15 NE 8 10.00 Overcast OVC014 64.4 60.8 88% 29.9 0.0
01 15:55 E 9 10.00 Overcast BKN014 BKN035 OVC080 64.4 60.8 88% 29.9 0.0
01 15:35 E 8 10.00 Light Rain BKN016 BKN035 OVC070 64.4 62.6 94% 29.91 0.0
01 15:15 NE 9 10.00 Overcast OVC016 64.4 60.8 88% 29.92 0.0
01 14:55 NE 7 10.00 Overcast OVC016 66.2 60.8 83% 29.93 0.0
01 14:35 NE 9 10.00 Overcast BKN016 OVC029 64.4 60.8 88% 29.93 0.0
01 14:15 NE 8 10.00 Overcast BKN016 BKN055 OVC110 64.4 59 83% 29.94 0.0
01 13:55 NE 9 10.00 Overcast SCT016 SCT033 OVC110 62.6 57.2 83% 29.95 0.0
01 13:35 NE 7 10.00 Overcast SCT033 BKN070 OVC110 62.6 57.2 83% 29.95 0.0
01 13:15 E 10 10.00 Mostly Cloudy BKN110 64.4 55.4 73% 29.94 0.0
01 12:55 NE 9 10.00 Overcast OVC120 64.4 55.4 73% 29.96 0.0
01 12:35 NE 12 10.00 Mostly Cloudy BKN120 64.4 53.6 68% 29.96 0.0
01 12:15 NE 10 10.00 Fair CLR 62.6 53.6 73% 29.96 0.0
01 11:55 E 10 10.00 Partly Cloudy SCT060 62.6 53.6 73% 29.96 0.0
01 11:35 E 9 10.00 Partly Cloudy SCT060 64.4 53.6 68% 29.97 0.0
01 11:15 NE 10 10.00 Fair CLR 62.6 51.8 68% 29.96 0.0
01 10:55 NE 12 10.00 Fair CLR 62.6 51.8 68% 29.96 0.0
01 10:35 NE 9 10.00 Fair CLR 62.6 51.8 68% 29.96 0.0
01 10:15 NE 12 10.00 Fair CLR 62.6 51.8 68% 29.96 0.0
01 09:55 NE 8 10.00 Fair CLR 62.6 53.6 73% 29.96 0.0
01 09:35 E 10 G 16 10.00 Partly Cloudy SCT025 62.6 53.6 73% 29.95 0.0
01 09:15 NE 10 G 20 10.00 Fair CLR 62.6 53.6 73% 29.95 0.0
01 08:55 NE 8 10.00 Fair CLR 60.8 55.4 83% 29.94 0.0
01 08:35 NE 12 G 18 10.00 Fair CLR 60.8 55.4 83% 29.94 0.0
01 08:15 NE 13 10.00 Partly Cloudy SCT020 60.8 57.2 88% 29.94 0.0
Date Time (edt) Wind (mph) Vis. (mi.) Weather Sky Cond. Air Dwpt Max. Min. Relative Humidity Wind Chill (°F) Heat Index (°F) altimeter (in) sea level (mb) 1 hr 3 hr 6 hr
6 hour
Temperature (ºF) Pressure Precipitation (in)